createdAt,value
2023-05-17T00:01:06.353Z,9.32
2023-05-17T00:03:35.556Z,9.35
2023-05-17T00:06:03.472Z,9.35
2023-05-17T00:08:31.919Z,9.39
2023-05-17T00:10:59.827Z,9.41
2023-05-17T00:13:27.803Z,9.44
2023-05-17T00:15:55.672Z,9.37
2023-05-17T00:18:23.816Z,9.42
2023-05-17T00:20:53.099Z,9.47
2023-05-17T00:23:20.880Z,9.53
2023-05-17T00:25:48.699Z,9.52
2023-05-17T00:28:16.498Z,9.49
2023-05-17T00:30:44.515Z,9.50
2023-05-17T00:33:12.430Z,9.53
2023-05-17T00:35:41.331Z,9.50
2023-05-17T00:38:10.502Z,9.45
2023-05-17T00:40:38.303Z,9.50
2023-05-17T00:43:06.126Z,9.55
2023-05-17T00:45:33.935Z,9.57
2023-05-17T00:48:02.475Z,9.52
2023-05-17T00:50:30.390Z,9.60
2023-05-17T00:52:58.295Z,9.62
2023-05-17T00:55:28.076Z,9.68
2023-05-17T00:57:56.242Z,9.62
2023-05-17T01:00:24.688Z,9.66
2023-05-17T01:02:52.794Z,9.62
2023-05-17T01:05:20.691Z,9.69
2023-05-17T01:07:48.537Z,9.68
2023-05-17T01:10:16.483Z,9.69
2023-05-17T01:13:01.564Z,9.67
2023-05-17T01:15:33.759Z,9.62
2023-05-17T01:18:21.328Z,9.64
2023-05-17T01:20:51.059Z,9.63
2023-05-17T01:23:36.749Z,9.62
2023-05-17T01:26:09.135Z,9.55
2023-05-17T01:28:40.112Z,9.56
2023-05-17T01:31:09.513Z,9.54
2023-05-17T01:33:38.805Z,9.55
2023-05-17T01:36:08.902Z,9.54
2023-05-17T01:38:36.760Z,9.56
2023-05-17T01:41:09.047Z,9.59
2023-05-17T01:43:45.579Z,9.61
2023-05-17T01:46:20.202Z,9.58
2023-05-17T01:49:01.881Z,9.62
2023-05-17T01:51:34.474Z,9.55
2023-05-17T01:54:09.517Z,9.57
2023-05-17T01:56:42.073Z,9.57
2023-05-17T01:59:16.020Z,9.46
2023-05-17T02:01:44.368Z,9.57
2023-05-17T02:04:12.228Z,9.59
2023-05-17T02:06:41.539Z,9.62
2023-05-17T02:09:09.377Z,9.59
2023-05-17T02:11:37.967Z,9.53
2023-05-17T02:14:06.061Z,9.58
2023-05-17T02:16:36.569Z,9.53
2023-05-17T02:19:04.440Z,9.47
2023-05-17T02:21:32.334Z,9.52
2023-05-17T02:24:00.113Z,9.54
2023-05-17T02:26:27.922Z,9.48
2023-05-17T02:28:55.739Z,9.45
2023-05-17T02:31:24.935Z,9.33
2023-05-17T02:33:54.484Z,9.51
2023-05-17T02:36:22.621Z,9.48
2023-05-17T02:38:50.758Z,9.54
2023-05-17T02:41:18.677Z,9.54
2023-05-17T02:43:46.549Z,9.53
2023-05-17T02:46:14.456Z,9.52
2023-05-17T02:48:42.294Z,9.43
2023-05-17T02:51:11.701Z,9.52
2023-05-17T02:53:39.550Z,9.56
2023-05-17T02:56:08.404Z,9.59
2023-05-17T02:58:36.296Z,9.61
2023-05-17T03:01:04.076Z,9.61
2023-05-17T03:03:32.499Z,9.58
2023-05-17T03:06:01.890Z,9.59
2023-05-17T03:08:31.298Z,9.58
2023-05-17T03:10:59.086Z,9.60
2023-05-17T03:13:26.845Z,9.57
2023-05-17T03:15:55.138Z,9.54
2023-05-17T03:18:23.001Z,9.53
2023-05-17T03:20:50.872Z,9.54
2023-05-17T03:23:18.782Z,9.57
2023-05-17T03:25:47.980Z,9.60
2023-05-17T03:28:15.790Z,9.59
2023-05-17T03:30:43.684Z,9.61
2023-05-17T03:33:11.612Z,9.54
2023-05-17T03:35:39.472Z,9.52
2023-05-17T03:38:07.248Z,9.45
2023-05-17T03:40:35.113Z,9.46
2023-05-17T03:43:04.537Z,9.45
2023-05-17T03:45:32.314Z,9.43
2023-05-17T03:48:00.254Z,9.48
2023-05-17T03:50:28.263Z,9.49
2023-05-17T03:52:56.060Z,9.54
2023-05-17T03:55:24.179Z,9.57
2023-05-17T03:57:51.990Z,9.60
2023-05-17T04:00:22.426Z,9.62
2023-05-17T04:02:52.141Z,9.67
2023-05-17T04:05:20.847Z,9.70
2023-05-17T04:07:48.744Z,9.69
2023-05-17T04:10:16.861Z,9.76
2023-05-17T04:12:44.660Z,9.70
2023-05-17T04:15:12.875Z,9.72
2023-05-17T04:17:42.168Z,9.78
2023-05-17T04:20:11.172Z,9.69
2023-05-17T04:22:38.974Z,9.55
2023-05-17T04:25:08.454Z,9.78
2023-05-17T04:27:36.795Z,9.82
2023-05-17T04:30:05.395Z,9.83
2023-05-17T04:32:34.282Z,9.79
2023-05-17T04:35:03.521Z,9.85
2023-05-17T04:37:31.646Z,9.85
2023-05-17T04:39:59.775Z,9.79
2023-05-17T04:42:27.841Z,9.77
2023-05-17T04:44:57.790Z,9.79
2023-05-17T04:47:26.068Z,9.77
2023-05-17T04:49:53.919Z,9.81
2023-05-17T04:52:23.173Z,9.74
2023-05-17T04:54:52.185Z,9.79
2023-05-17T04:57:19.937Z,9.78
2023-05-17T04:59:47.729Z,9.79
2023-05-17T05:02:15.535Z,9.76
2023-05-17T05:04:43.459Z,9.77
2023-05-17T05:07:11.367Z,9.79
2023-05-17T05:09:40.602Z,9.75
2023-05-17T05:12:09.288Z,9.79
2023-05-17T05:14:37.021Z,9.76
2023-05-17T05:17:04.970Z,9.71
2023-05-17T05:19:32.913Z,9.78
2023-05-17T05:22:00.743Z,9.86
2023-05-17T05:24:28.609Z,9.91
2023-05-17T05:26:57.881Z,9.88
2023-05-17T05:29:25.683Z,9.92
2023-05-17T05:31:53.790Z,9.93
2023-05-17T05:34:21.607Z,10.04
2023-05-17T05:36:49.470Z,10.04
2023-05-17T05:39:17.392Z,10.10
2023-05-17T05:41:45.996Z,10.17
2023-05-17T05:44:15.269Z,10.23
2023-05-17T05:46:43.141Z,10.26
2023-05-17T05:49:11.000Z,10.39
2023-05-17T05:51:38.850Z,10.47
2023-05-17T05:54:09.508Z,10.54
2023-05-17T05:56:37.340Z,10.62
2023-05-17T05:59:05.121Z,10.72
2023-05-17T06:01:34.298Z,10.82
2023-05-17T06:04:02.270Z,10.87
2023-05-17T06:06:30.640Z,10.93
2023-05-17T06:08:59.742Z,11.02
2023-05-17T06:11:27.921Z,11.07
2023-05-17T06:13:55.795Z,11.15
2023-05-17T06:16:23.599Z,11.26
2023-05-17T06:18:52.783Z,11.38
2023-05-17T06:21:20.690Z,11.42
2023-05-17T06:23:48.898Z,11.65
2023-05-17T06:26:16.747Z,11.75
2023-05-17T06:28:44.544Z,11.71
2023-05-17T06:31:12.340Z,11.58
2023-05-17T06:33:40.162Z,11.75
2023-05-17T06:36:09.883Z,11.70
2023-05-17T06:38:37.629Z,11.70
2023-05-17T06:41:05.480Z,11.75
2023-05-17T06:43:35.528Z,11.97
2023-05-17T06:46:04.198Z,12.12
2023-05-17T06:48:32.198Z,12.14
2023-05-17T06:51:00.061Z,12.24
2023-05-17T06:53:29.222Z,12.29
2023-05-17T06:55:57.063Z,12.25
2023-05-17T06:58:24.822Z,12.23
2023-05-17T07:00:52.766Z,12.39
2023-05-17T07:03:20.786Z,12.46
2023-05-17T07:05:48.667Z,12.61
2023-05-17T07:08:16.493Z,12.60
2023-05-17T07:10:45.707Z,12.73
2023-05-17T07:13:13.532Z,12.64
2023-05-17T07:15:41.552Z,12.57
2023-05-17T07:18:09.461Z,12.78
2023-05-17T07:20:37.475Z,12.72
2023-05-17T07:23:05.367Z,12.90
2023-05-17T07:25:33.155Z,13.05
2023-05-17T07:28:02.393Z,13.15
2023-05-17T07:30:30.207Z,13.07
2023-05-17T07:32:58.087Z,13.12
2023-05-17T07:35:25.944Z,13.15
2023-05-17T07:37:53.802Z,13.39
2023-05-17T07:40:22.104Z,13.37
2023-05-17T07:42:50.234Z,13.42
2023-05-17T07:45:20.036Z,13.24
2023-05-17T07:47:51.219Z,13.36
2023-05-17T07:50:19.635Z,13.08
2023-05-17T07:52:48.297Z,12.99
2023-05-17T07:55:17.149Z,12.92
2023-05-17T07:57:47.430Z,13.25
2023-05-17T08:00:19.317Z,13.43
2023-05-17T08:02:48.567Z,13.25
2023-05-17T08:05:16.769Z,13.35
2023-05-17T08:07:44.586Z,13.25
2023-05-17T08:10:13.001Z,13.07
2023-05-17T08:12:41.297Z,12.75
2023-05-17T08:15:10.014Z,12.83
2023-05-17T08:17:37.904Z,13.07
2023-05-17T08:20:08.919Z,13.08
2023-05-17T08:22:36.972Z,13.15
2023-05-17T08:25:05.181Z,13.44
2023-05-17T08:27:33.122Z,13.54
2023-05-17T08:30:00.987Z,13.74
2023-05-17T08:32:29.388Z,13.65
2023-05-17T08:34:57.873Z,13.77
2023-05-17T08:37:27.352Z,13.79
2023-05-17T08:39:55.300Z,13.95
2023-05-17T08:42:25.319Z,14.19
2023-05-17T08:44:54.023Z,14.35
2023-05-17T08:47:30.121Z,14.06
2023-05-17T08:50:00.613Z,14.07
2023-05-17T08:52:32.509Z,14.32
2023-05-17T08:55:05.198Z,14.41
2023-05-17T08:57:36.348Z,14.46
2023-05-17T09:00:12.495Z,14.54
2023-05-17T09:02:40.826Z,14.69
2023-05-17T09:05:09.979Z,14.60
2023-05-17T09:07:39.458Z,14.53
2023-05-17T09:10:08.430Z,14.68
2023-05-17T09:12:36.755Z,14.42
2023-05-17T09:15:15.981Z,14.45
2023-05-17T09:17:44.306Z,14.51
2023-05-17T09:20:13.135Z,14.84
2023-05-17T09:22:46.190Z,14.94
2023-05-17T09:25:14.201Z,14.89
2023-05-17T09:27:42.347Z,14.76
2023-05-17T09:30:12.724Z,14.67
2023-05-17T09:32:45.237Z,14.92
2023-05-17T09:35:13.602Z,15.23
2023-05-17T09:37:45.242Z,15.56
2023-05-17T09:40:24.534Z,15.39
2023-05-17T09:42:52.591Z,15.51
2023-05-17T09:45:23.934Z,15.72
2023-05-17T09:47:53.633Z,15.97
2023-05-17T09:50:25.968Z,15.95
2023-05-17T09:52:55.483Z,15.92
2023-05-17T09:55:27.844Z,15.84
2023-05-17T09:58:04.193Z,15.81
2023-05-17T10:00:32.702Z,16.08
2023-05-17T10:03:02.337Z,15.97
2023-05-17T10:05:30.864Z,15.70
2023-05-17T10:08:00.384Z,15.90
2023-05-17T10:10:28.750Z,16.10
2023-05-17T10:12:57.528Z,15.73
2023-05-17T10:15:26.385Z,16.23
2023-05-17T10:17:55.166Z,16.43
2023-05-17T10:20:23.522Z,16.70
2023-05-17T10:22:51.848Z,16.57
2023-05-17T10:25:22.441Z,16.68
2023-05-17T10:27:52.084Z,16.72
2023-05-17T10:30:21.304Z,16.57
2023-05-17T10:32:51.497Z,16.24
2023-05-17T10:35:20.790Z,16.22
2023-05-17T10:37:48.696Z,16.27
2023-05-17T10:40:20.280Z,16.50
2023-05-17T10:42:53.398Z,16.62
2023-05-17T10:45:23.287Z,16.60
2023-05-17T10:47:52.939Z,16.71
2023-05-17T10:50:24.272Z,16.75
2023-05-17T10:52:53.627Z,16.78
2023-05-17T10:55:22.392Z,16.52
2023-05-17T10:58:18.831Z,16.56
2023-05-17T11:00:48.969Z,16.73
2023-05-17T11:03:19.183Z,17.10
2023-05-17T11:06:24.604Z,17.25
2023-05-17T11:09:14.767Z,16.72
2023-05-17T11:12:05.420Z,17.01
2023-05-17T11:14:51.120Z,16.99
2023-05-17T11:17:21.009Z,17.05
2023-05-17T11:20:03.370Z,17.23
2023-05-17T11:22:38.673Z,17.06
2023-05-17T11:25:14.235Z,17.08
2023-05-17T11:27:46.979Z,17.29
2023-05-17T11:30:24.457Z,16.94
2023-05-17T11:32:54.363Z,17.04
2023-05-17T11:35:27.185Z,17.42
2023-05-17T11:38:12.865Z,17.89
2023-05-17T11:40:46.757Z,17.90
2023-05-17T11:43:16.259Z,17.51
2023-05-17T11:45:50.611Z,17.47
2023-05-17T11:48:22.384Z,17.32
2023-05-17T11:50:51.832Z,17.02
2023-05-17T11:53:20.081Z,17.17
2023-05-17T11:55:49.083Z,17.17
2023-05-17T11:58:18.712Z,17.02
2023-05-17T12:00:54.419Z,17.22
2023-05-17T12:03:23.460Z,17.02
2023-05-17T12:05:53.311Z,16.97
2023-05-17T12:08:23.152Z,16.53
2023-05-17T12:10:52.558Z,16.50
2023-05-17T12:13:20.954Z,16.97
2023-05-17T12:15:57.149Z,17.03
2023-05-17T12:18:25.233Z,17.32
2023-05-17T12:20:57.305Z,17.16
2023-05-17T12:23:30.616Z,17.17
2023-05-17T12:26:06.551Z,17.03
2023-05-17T12:28:34.684Z,17.43
2023-05-17T12:31:05.096Z,17.62
2023-05-17T12:33:34.977Z,17.25
2023-05-17T12:36:04.692Z,17.09
2023-05-17T12:38:33.713Z,16.87
2023-05-17T12:41:06.189Z,16.95
2023-05-17T12:43:34.724Z,17.17
2023-05-17T12:46:09.509Z,17.31
2023-05-17T12:48:38.651Z,16.70
2023-05-17T12:51:12.257Z,16.64
2023-05-17T12:53:40.570Z,16.88
2023-05-17T12:56:09.354Z,16.93
2023-05-17T12:58:37.631Z,17.16
2023-05-17T13:01:08.247Z,17.00
2023-05-17T13:03:38.170Z,17.52
2023-05-17T13:06:09.528Z,17.51
2023-05-17T13:08:38.250Z,17.97
2023-05-17T13:11:13.668Z,18.19
2023-05-17T13:13:42.317Z,17.81
2023-05-17T13:16:10.165Z,17.60
2023-05-17T13:18:50.869Z,17.44
2023-05-17T13:21:20.049Z,17.78
2023-05-17T13:23:49.001Z,17.39
2023-05-17T13:26:17.587Z,17.66
2023-05-17T13:28:46.038Z,17.31
2023-05-17T13:31:14.048Z,17.15
2023-05-17T13:33:41.894Z,17.26
2023-05-17T13:36:12.181Z,16.86
2023-05-17T13:38:39.944Z,17.09
2023-05-17T13:41:09.374Z,17.27
2023-05-17T13:43:37.264Z,17.65
2023-05-17T13:46:05.108Z,17.62
2023-05-17T13:48:33.084Z,17.69
2023-05-17T13:51:02.001Z,18.03
2023-05-17T13:53:31.374Z,18.08
2023-05-17T13:55:59.153Z,17.71
2023-05-17T13:58:26.963Z,17.71
2023-05-17T14:00:54.917Z,17.05
2023-05-17T14:03:22.797Z,17.32
2023-05-17T14:05:53.014Z,17.51
2023-05-17T14:08:21.192Z,17.76
2023-05-17T14:10:50.370Z,17.77
2023-05-17T14:13:18.203Z,17.55
2023-05-17T14:15:46.144Z,17.61
2023-05-17T14:18:14.029Z,17.35
2023-05-17T14:20:41.898Z,16.95
2023-05-17T14:23:09.674Z,17.09
2023-05-17T14:25:37.667Z,17.27
2023-05-17T14:28:07.207Z,16.97
2023-05-17T14:30:35.201Z,17.39
2023-05-17T14:33:03.065Z,17.88
2023-05-17T14:35:31.680Z,17.11
2023-05-17T14:37:59.471Z,16.48
2023-05-17T14:40:27.510Z,16.78
2023-05-17T14:42:56.901Z,16.69
2023-05-17T14:45:26.126Z,16.93
2023-05-17T14:47:54.036Z,17.13
2023-05-17T14:50:21.843Z,16.51
2023-05-17T14:52:49.756Z,16.80
2023-05-17T14:55:17.702Z,16.89
2023-05-17T14:57:45.939Z,16.95
2023-05-17T15:00:14.560Z,16.51
2023-05-17T15:02:44.061Z,16.36
2023-05-17T15:05:12.505Z,16.27
2023-05-17T15:07:40.567Z,16.21
2023-05-17T15:10:09.880Z,16.47
2023-05-17T15:12:37.798Z,16.92
2023-05-17T15:15:06.713Z,16.61
2023-05-17T15:17:34.687Z,16.48
2023-05-17T15:20:04.183Z,16.82
2023-05-17T15:22:31.928Z,16.83
2023-05-17T15:24:59.749Z,16.83
2023-05-17T15:27:27.677Z,17.00
2023-05-17T15:29:55.575Z,16.88
2023-05-17T15:32:23.620Z,16.66
2023-05-17T15:34:52.653Z,16.77
2023-05-17T15:37:23.048Z,16.49
2023-05-17T15:39:51.208Z,16.67
2023-05-17T15:42:21.869Z,16.41
2023-05-17T15:44:49.725Z,16.64
2023-05-17T15:47:17.814Z,17.00
2023-05-17T15:49:46.335Z,16.25
2023-05-17T15:52:14.146Z,16.59
2023-05-17T15:54:43.511Z,16.51
2023-05-17T15:57:11.358Z,16.42
2023-05-17T15:59:39.287Z,16.45
2023-05-17T16:02:07.459Z,16.36
2023-05-17T16:04:35.348Z,16.50
2023-05-17T16:07:03.240Z,16.46
2023-05-17T16:09:31.150Z,16.46
2023-05-17T16:12:00.337Z,16.45
2023-05-17T16:14:28.134Z,16.39
2023-05-17T16:16:56.102Z,16.15
2023-05-17T16:19:26.806Z,15.92
2023-05-17T16:21:54.680Z,16.01
2023-05-17T16:24:22.551Z,15.56
2023-05-17T16:26:50.426Z,15.92
2023-05-17T16:29:19.668Z,16.11
2023-05-17T16:31:49.018Z,16.20
2023-05-17T16:34:16.887Z,15.72
2023-05-17T16:36:47.725Z,15.72
2023-05-17T16:39:15.515Z,16.01
2023-05-17T16:41:43.350Z,15.87
2023-05-17T16:44:11.330Z,15.25
2023-05-17T16:46:40.748Z,15.53
2023-05-17T16:49:08.583Z,15.12
2023-05-17T16:51:36.394Z,15.19
2023-05-17T16:54:04.610Z,15.39
2023-05-17T16:56:32.460Z,15.28
2023-05-17T16:59:00.261Z,15.16
2023-05-17T17:01:28.080Z,15.43
2023-05-17T17:03:57.281Z,15.61
2023-05-17T17:06:25.490Z,15.32
2023-05-17T17:08:53.312Z,15.46
2023-05-17T17:11:21.860Z,15.32
2023-05-17T17:13:50.071Z,15.56
2023-05-17T17:16:18.460Z,15.38
2023-05-17T17:18:47.112Z,15.10
2023-05-17T17:21:16.454Z,15.08
2023-05-17T17:23:44.447Z,14.96
2023-05-17T17:26:12.626Z,15.06
2023-05-17T17:28:40.668Z,14.99
2023-05-17T17:31:08.567Z,14.90
2023-05-17T17:33:36.973Z,14.86
2023-05-17T17:36:05.473Z,14.80
2023-05-17T17:38:34.997Z,14.81
2023-05-17T17:41:03.142Z,14.74
2023-05-17T17:43:31.061Z,14.51
2023-05-17T17:45:58.918Z,14.45
2023-05-17T17:48:26.751Z,14.51
2023-05-17T17:50:54.617Z,14.49
2023-05-17T17:53:23.160Z,14.37
2023-05-17T17:55:52.444Z,14.38
2023-05-17T17:58:20.245Z,14.41
2023-05-17T18:00:48.389Z,14.35
2023-05-17T18:03:16.585Z,14.17
2023-05-17T18:05:44.594Z,14.07
2023-05-17T18:08:12.390Z,13.94
2023-05-17T18:10:41.304Z,13.77
2023-05-17T18:13:10.526Z,13.79
2023-05-17T18:15:38.381Z,13.80
2023-05-17T18:18:06.439Z,13.78
2023-05-17T18:20:34.422Z,13.84
2023-05-17T18:23:02.320Z,13.88
2023-05-17T18:25:30.139Z,13.93
2023-05-17T18:27:58.222Z,13.79
2023-05-17T18:30:27.587Z,13.78
2023-05-17T18:32:55.709Z,13.64
2023-05-17T18:35:23.818Z,13.54
2023-05-17T18:37:51.686Z,13.47
2023-05-17T18:40:19.786Z,13.37
2023-05-17T18:42:47.924Z,13.30
2023-05-17T18:45:15.853Z,13.16
2023-05-17T18:47:45.358Z,13.11
2023-05-17T18:50:13.257Z,13.13
2023-05-17T18:52:41.617Z,13.03
2023-05-17T18:55:09.985Z,12.98
2023-05-17T18:57:38.021Z,12.86
2023-05-17T19:00:07.560Z,12.82
2023-05-17T19:02:35.540Z,12.84
2023-05-17T19:05:05.298Z,12.83
2023-05-17T19:07:33.442Z,12.82
2023-05-17T19:10:01.705Z,12.78
2023-05-17T19:12:29.653Z,12.64
2023-05-17T19:14:57.619Z,12.51
2023-05-17T19:17:25.501Z,12.47
2023-05-17T19:19:53.542Z,12.44
2023-05-17T19:22:22.850Z,12.39
2023-05-17T19:24:51.238Z,12.34
2023-05-17T19:27:20.549Z,12.36
2023-05-17T19:29:49.123Z,12.20
2023-05-17T19:32:17.009Z,12.31
2023-05-17T19:34:44.940Z,12.20
2023-05-17T19:37:12.942Z,12.18
2023-05-17T19:39:42.150Z,12.20
2023-05-17T19:42:09.995Z,12.16
2023-05-17T19:44:37.956Z,12.08
2023-05-17T19:47:06.300Z,12.07
2023-05-17T19:49:34.161Z,11.97
2023-05-17T19:52:02.666Z,11.89
2023-05-17T19:54:30.577Z,11.88
2023-05-17T19:56:59.950Z,11.81
2023-05-17T19:59:27.805Z,11.74
2023-05-17T20:01:56.088Z,11.76
2023-05-17T20:04:24.312Z,11.60
2023-05-17T20:06:52.654Z,11.64
2023-05-17T20:09:21.550Z,11.56
2023-05-17T20:11:49.520Z,11.36
2023-05-17T20:14:18.843Z,11.28
2023-05-17T20:16:47.555Z,11.17
2023-05-17T20:19:15.556Z,11.09
2023-05-17T20:21:43.486Z,11.07
2023-05-17T20:24:11.425Z,11.06
2023-05-17T20:26:39.644Z,11.02
2023-05-17T20:29:08.745Z,10.98
2023-05-17T20:31:38.820Z,10.96
2023-05-17T20:34:07.565Z,10.86
2023-05-17T20:36:36.014Z,10.89
2023-05-17T20:39:03.846Z,10.86
2023-05-17T20:41:31.683Z,10.83
2023-05-17T20:43:59.513Z,10.75
2023-05-17T20:46:29.709Z,10.72
2023-05-17T20:49:01.194Z,10.54
2023-05-17T20:51:29.057Z,10.45
2023-05-17T20:53:56.899Z,10.37
2023-05-17T20:56:25.634Z,10.37
2023-05-17T20:58:53.467Z,10.41
2023-05-17T21:01:21.407Z,10.36
2023-05-17T21:03:51.349Z,10.32
2023-05-17T21:06:22.131Z,10.37
2023-05-17T21:08:49.953Z,10.39
2023-05-17T21:11:21.290Z,10.38
2023-05-17T21:13:49.402Z,10.41
2023-05-17T21:16:17.730Z,10.37
2023-05-17T21:18:46.134Z,10.37
2023-05-17T21:21:14.331Z,10.32
2023-05-17T21:23:43.545Z,10.33
2023-05-17T21:26:11.399Z,10.31
2023-05-17T21:28:39.326Z,10.26
2023-05-17T21:31:07.284Z,10.24
2023-05-17T21:33:35.242Z,10.14
2023-05-17T21:36:03.498Z,10.15
2023-05-17T21:38:31.370Z,10.11
2023-05-17T21:41:00.700Z,10.10
2023-05-17T21:43:28.706Z,10.00
2023-05-17T21:45:56.626Z,10.02
2023-05-17T21:48:25.424Z,9.88
2023-05-17T21:50:53.239Z,9.95
2023-05-17T21:53:21.098Z,9.90
2023-05-17T21:56:01.456Z,9.91
2023-05-17T21:58:31.977Z,9.80
2023-05-17T22:00:59.901Z,9.84
2023-05-17T22:03:27.861Z,9.77
2023-05-17T22:05:55.778Z,9.73
2023-05-17T22:08:23.691Z,9.66
2023-05-17T22:10:51.768Z,9.61
2023-05-17T22:13:25.386Z,9.46
2023-05-17T22:15:57.446Z,9.37
2023-05-17T22:18:27.021Z,9.36
2023-05-17T22:20:59.172Z,9.35
2023-05-17T22:23:27.303Z,9.25
2023-05-17T22:25:57.171Z,9.25
2023-05-17T22:28:24.987Z,9.11
2023-05-17T22:30:55.119Z,9.21
2023-05-17T22:33:23.562Z,9.18
2023-05-17T22:35:53.579Z,9.12
2023-05-17T22:38:23.496Z,9.08
2023-05-17T22:40:51.374Z,9.01
2023-05-17T22:43:21.373Z,9.00
2023-05-17T22:45:51.102Z,8.96
2023-05-17T22:48:21.038Z,8.95
2023-05-17T22:50:49.046Z,8.91
2023-05-17T22:53:18.737Z,8.86
2023-05-17T22:55:49.063Z,8.81
2023-05-17T22:58:17.027Z,8.74
2023-05-17T23:00:45.232Z,8.77
2023-05-17T23:03:13.567Z,8.60
2023-05-17T23:05:43.312Z,8.58
2023-05-17T23:08:12.883Z,8.57
2023-05-17T23:10:40.944Z,8.50
2023-05-17T23:13:08.822Z,8.48
2023-05-17T23:15:37.185Z,8.52
2023-05-17T23:18:08.264Z,8.47
2023-05-17T23:20:36.206Z,8.43
2023-05-17T23:23:06.425Z,8.23
2023-05-17T23:25:34.338Z,8.42
2023-05-17T23:28:04.639Z,8.49
2023-05-17T23:30:32.730Z,8.50
2023-05-17T23:33:02.577Z,8.49
2023-05-17T23:35:30.747Z,8.47
2023-05-17T23:37:58.797Z,8.43
2023-05-17T23:40:27.924Z,8.43
2023-05-17T23:42:55.918Z,8.42
2023-05-17T23:45:23.933Z,8.28
2023-05-17T23:47:51.853Z,8.26
2023-05-17T23:50:19.688Z,8.25
2023-05-17T23:52:47.544Z,8.29
2023-05-17T23:55:15.488Z,8.29
2023-05-17T23:57:44.672Z,8.33
